createdAt,value
2023-05-18T00:01:56.502Z,100525.86
2023-05-18T00:04:06.181Z,100525.73
2023-05-18T00:06:15.658Z,100528.20
2023-05-18T00:08:25.109Z,100533.33
2023-05-18T00:10:34.299Z,100528.75
2023-05-18T00:12:43.745Z,100527.73
2023-05-18T00:14:52.968Z,100527.20
2023-05-18T00:17:03.479Z,100523.80
2023-05-18T00:19:15.319Z,100524.31
2023-05-18T00:21:30.889Z,100527.70
2023-05-18T00:23:40.529Z,100521.51
2023-05-18T00:25:50.086Z,100516.31
2023-05-18T00:27:59.225Z,100512.92
2023-05-18T00:30:09.850Z,100512.56
2023-05-18T00:32:19.264Z,100508.08
2023-05-18T00:34:28.901Z,100504.88
2023-05-18T00:36:39.229Z,100502.73
2023-05-18T00:38:48.592Z,100496.91
2023-05-18T00:40:57.773Z,100495.11
2023-05-18T00:43:07.211Z,100496.67
2023-05-18T00:45:16.815Z,100494.19
2023-05-18T00:47:26.040Z,100493.04
2023-05-18T00:49:35.210Z,100489.73
2023-05-18T00:51:48.132Z,100488.14
2023-05-18T00:53:58.506Z,100485.48
2023-05-18T00:56:08.913Z,100486.77
2023-05-18T00:58:18.808Z,100485.27
2023-05-18T01:00:28.785Z,100483.06
2023-05-18T01:02:43.177Z,100482.29
2023-05-18T01:04:53.326Z,100481.58
2023-05-18T01:07:07.122Z,100483.15
2023-05-18T01:09:17.013Z,100485.83
2023-05-18T01:11:35.563Z,100483.00
2023-05-18T01:13:55.801Z,100482.64
2023-05-18T01:16:08.478Z,100479.61
2023-05-18T01:18:25.406Z,100477.09
2023-05-18T01:20:39.400Z,100476.79
2023-05-18T01:23:01.893Z,100471.39
2023-05-18T01:25:20.080Z,100473.92
2023-05-18T01:27:29.549Z,100476.04
2023-05-18T01:29:40.072Z,100471.92
2023-05-18T01:31:47.904Z,100470.20
2023-05-18T01:33:57.135Z,100468.89
2023-05-18T01:36:07.024Z,100470.70
2023-05-18T01:38:17.016Z,100466.95
2023-05-18T01:40:30.050Z,100469.17
2023-05-18T01:42:46.675Z,100469.14
2023-05-18T01:45:04.346Z,100467.09
2023-05-18T01:47:17.428Z,100465.96
2023-05-18T01:49:32.875Z,100463.85
2023-05-18T01:51:47.885Z,100463.55
2023-05-18T01:54:04.980Z,100462.63
2023-05-18T01:56:15.979Z,100462.95
2023-05-18T01:58:23.969Z,100467.60
2023-05-18T02:00:33.323Z,100465.73
2023-05-18T02:02:43.048Z,100465.05
2023-05-18T02:04:53.059Z,100466.20
2023-05-18T02:07:02.469Z,100464.44
2023-05-18T02:09:12.566Z,100467.48
2023-05-18T02:11:22.227Z,100463.92
2023-05-18T02:13:31.491Z,100467.55
2023-05-18T02:15:40.598Z,100470.21
2023-05-18T02:17:49.974Z,100466.86
2023-05-18T02:19:59.081Z,100468.52
2023-05-18T02:22:09.283Z,100467.96
2023-05-18T02:24:19.250Z,100467.13
2023-05-18T02:26:28.285Z,100469.41
2023-05-18T02:28:40.218Z,100466.21
2023-05-18T02:30:49.693Z,100464.04
2023-05-18T02:32:58.789Z,100459.88
2023-05-18T02:35:09.698Z,100460.20
2023-05-18T02:37:19.549Z,100457.30
2023-05-18T02:39:29.171Z,100459.94
2023-05-18T02:41:39.200Z,100460.55
2023-05-18T02:43:48.783Z,100462.55
2023-05-18T02:45:58.304Z,100463.69
2023-05-18T02:48:08.006Z,100463.45
2023-05-18T02:50:18.268Z,100468.30
2023-05-18T02:52:28.143Z,100468.86
2023-05-18T02:54:37.697Z,100471.16
2023-05-18T02:56:49.337Z,100471.67
2023-05-18T02:59:19.185Z,100473.00
2023-05-18T03:01:29.322Z,100475.35
2023-05-18T03:03:38.717Z,100474.16
2023-05-18T03:05:47.967Z,100476.05
2023-05-18T03:07:58.039Z,100476.35
2023-05-18T03:10:09.340Z,100476.96
2023-05-18T03:12:16.847Z,100477.61
2023-05-18T03:14:25.916Z,100475.22
2023-05-18T03:16:39.127Z,100474.27
2023-05-18T03:18:52.402Z,100475.84
2023-05-18T03:21:02.380Z,100470.08
2023-05-18T03:23:12.128Z,100472.46
2023-05-18T03:25:22.843Z,100473.06
2023-05-18T03:27:32.177Z,100474.33
2023-05-18T03:29:41.970Z,100473.93
2023-05-18T03:31:51.627Z,100473.75
2023-05-18T03:34:01.161Z,100470.33
2023-05-18T03:36:13.367Z,100471.76
2023-05-18T03:38:23.036Z,100468.89
2023-05-18T03:40:39.102Z,100467.46
2023-05-18T03:42:48.323Z,100470.92
2023-05-18T03:44:57.540Z,100469.45
2023-05-18T03:47:07.080Z,100467.25
2023-05-18T03:49:16.216Z,100467.27
2023-05-18T03:51:27.123Z,100470.87
2023-05-18T03:53:36.613Z,100470.50
2023-05-18T03:55:45.807Z,100472.44
2023-05-18T03:57:55.339Z,100472.13
2023-05-18T04:00:13.810Z,100471.73
2023-05-18T04:02:24.255Z,100478.55
2023-05-18T04:04:33.691Z,100478.80
2023-05-18T04:06:42.703Z,100480.02
2023-05-18T04:08:52.455Z,100489.06
2023-05-18T04:11:01.635Z,100487.73
2023-05-18T04:13:10.921Z,100492.95
2023-05-18T04:15:20.182Z,100493.26
2023-05-18T04:17:30.227Z,100502.08
2023-05-18T04:19:40.795Z,100501.29
2023-05-18T04:21:50.087Z,100508.50
2023-05-18T04:24:03.292Z,100515.77
2023-05-18T04:26:12.397Z,100518.31
2023-05-18T04:28:21.730Z,100516.95
2023-05-18T04:30:32.223Z,100515.96
2023-05-18T04:32:43.403Z,100520.91
2023-05-18T04:34:53.108Z,100522.42
2023-05-18T04:37:03.477Z,100521.95
2023-05-18T04:39:11.580Z,100525.08
2023-05-18T04:41:22.588Z,100526.38
2023-05-18T04:43:31.809Z,100529.40
2023-05-18T04:45:41.849Z,100531.27
2023-05-18T04:47:54.326Z,100536.56
2023-05-18T04:50:04.448Z,100539.37
2023-05-18T04:52:14.190Z,100547.88
2023-05-18T04:54:23.698Z,100542.92
2023-05-18T04:56:32.809Z,100543.27
2023-05-18T04:58:46.155Z,100535.62
2023-05-18T05:00:55.867Z,100540.08
2023-05-18T05:03:07.665Z,100542.91
2023-05-18T05:05:17.108Z,100549.20
2023-05-18T05:07:26.669Z,100551.02
2023-05-18T05:09:36.352Z,100556.86
2023-05-18T05:11:45.873Z,100556.02
2023-05-18T05:13:55.323Z,100554.35
2023-05-18T05:16:04.897Z,100554.83
2023-05-18T05:18:23.225Z,100554.95
2023-05-18T05:20:32.398Z,100555.27
2023-05-18T05:22:41.690Z,100557.70
2023-05-18T05:24:51.110Z,100557.30
2023-05-18T05:27:00.288Z,100557.11
2023-05-18T05:29:09.418Z,100559.39
2023-05-18T05:31:19.538Z,100559.68
2023-05-18T05:33:30.217Z,100558.59
2023-05-18T05:35:39.489Z,100563.77
2023-05-18T05:37:48.981Z,100561.44
2023-05-18T05:39:59.720Z,100560.63
2023-05-18T05:42:10.684Z,100563.17
2023-05-18T05:44:20.112Z,100563.00
2023-05-18T05:46:29.607Z,100567.09
2023-05-18T05:48:40.537Z,100567.56
2023-05-18T05:50:50.565Z,100572.85
2023-05-18T05:53:00.283Z,100572.94
2023-05-18T05:55:11.558Z,100576.59
2023-05-18T05:57:20.976Z,100577.30
2023-05-18T05:59:30.262Z,100575.02
2023-05-18T06:01:40.391Z,100578.63
2023-05-18T06:03:49.935Z,100577.98
2023-05-18T06:05:59.596Z,100580.53
2023-05-18T06:08:10.293Z,100582.09
2023-05-18T06:10:20.651Z,100586.48
2023-05-18T06:12:30.343Z,100585.59
2023-05-18T06:14:39.362Z,100587.10
2023-05-18T06:16:49.249Z,100590.04
2023-05-18T06:18:59.096Z,100587.46
2023-05-18T06:21:08.361Z,100587.41
2023-05-18T06:23:22.684Z,100584.96
2023-05-18T06:25:37.761Z,100591.15
2023-05-18T06:27:52.451Z,100594.29
2023-05-18T06:30:22.125Z,100602.41
2023-05-18T06:32:49.549Z,100602.63
2023-05-18T06:34:58.834Z,100606.02
2023-05-18T06:37:09.210Z,100603.39
2023-05-18T06:39:18.346Z,100605.15
2023-05-18T06:41:28.107Z,100615.13
2023-05-18T06:43:37.269Z,100617.18
2023-05-18T06:46:00.636Z,100622.59
2023-05-18T06:48:17.573Z,100617.13
2023-05-18T06:50:27.231Z,100612.44
2023-05-18T06:52:37.228Z,100615.66
2023-05-18T06:54:46.413Z,100616.98
2023-05-18T06:56:56.782Z,100617.63
2023-05-18T06:59:06.730Z,100623.38
2023-05-18T07:01:16.353Z,100622.82
2023-05-18T07:03:27.294Z,100621.97
2023-05-18T07:05:39.186Z,100624.80
2023-05-18T07:07:48.961Z,100624.38
2023-05-18T07:09:59.337Z,100627.55
2023-05-18T07:12:09.909Z,100629.65
2023-05-18T07:14:18.973Z,100630.52
2023-05-18T07:16:29.938Z,100627.46
2023-05-18T07:18:40.292Z,100622.80
2023-05-18T07:20:49.398Z,100625.58
2023-05-18T07:22:58.587Z,100625.55
2023-05-18T07:25:08.472Z,100627.41
2023-05-18T07:27:18.844Z,100630.40
2023-05-18T07:29:28.193Z,100628.04
2023-05-18T07:31:39.453Z,100630.52
2023-05-18T07:33:49.224Z,100632.10
2023-05-18T07:35:58.847Z,100633.66
2023-05-18T07:38:07.889Z,100635.70
2023-05-18T07:40:17.274Z,100635.39
2023-05-18T07:42:26.682Z,100633.14
2023-05-18T07:44:36.044Z,100639.45
2023-05-18T07:46:45.345Z,100642.02
2023-05-18T07:48:54.955Z,100647.95
2023-05-18T07:51:04.083Z,100650.52
2023-05-18T07:53:13.368Z,100648.67
2023-05-18T07:55:22.633Z,100648.48
2023-05-18T07:57:31.893Z,100649.16
2023-05-18T07:59:41.067Z,100647.59
2023-05-18T08:01:50.534Z,100649.34
2023-05-18T08:04:00.421Z,100650.51
2023-05-18T08:06:10.094Z,100654.61
2023-05-18T08:08:19.223Z,100659.56
2023-05-18T08:10:29.172Z,100661.27
2023-05-18T08:12:38.917Z,100663.60
2023-05-18T08:14:48.059Z,100661.31
2023-05-18T08:16:57.354Z,100661.25
2023-05-18T08:19:06.627Z,100661.91
2023-05-18T08:21:15.738Z,100662.13
2023-05-18T08:23:25.380Z,100660.52
2023-05-18T08:25:34.433Z,100666.14
2023-05-18T08:27:43.520Z,100667.60
2023-05-18T08:29:52.845Z,100669.27
2023-05-18T08:32:02.002Z,100672.10
2023-05-18T08:34:11.847Z,100675.93
2023-05-18T08:36:21.438Z,100674.06
2023-05-18T08:38:31.750Z,100673.80
2023-05-18T08:40:45.047Z,100674.60
2023-05-18T08:43:04.251Z,100674.94
2023-05-18T08:45:17.251Z,100676.86
2023-05-18T08:47:28.220Z,100672.98
2023-05-18T08:49:38.268Z,100675.09
2023-05-18T08:51:50.000Z,100672.48
2023-05-18T08:54:00.457Z,100673.86
2023-05-18T08:56:12.476Z,100680.20
2023-05-18T08:58:29.289Z,100680.05
2023-05-18T09:00:38.758Z,100682.79
2023-05-18T09:02:49.429Z,100685.20
2023-05-18T09:05:00.406Z,100687.38
2023-05-18T09:07:10.927Z,100688.77
2023-05-18T09:09:20.026Z,100693.61
2023-05-18T09:11:31.175Z,100693.45
2023-05-18T09:13:38.620Z,100693.69
2023-05-18T09:15:47.974Z,100692.45
2023-05-18T09:17:57.665Z,100695.83
2023-05-18T09:20:07.873Z,100697.20
2023-05-18T09:22:18.486Z,100702.37
2023-05-18T09:24:28.367Z,100702.71
2023-05-18T09:26:38.301Z,100704.58
2023-05-18T09:28:49.803Z,100705.23
2023-05-18T09:30:59.284Z,100702.77
2023-05-18T09:33:17.591Z,100705.74
2023-05-18T09:35:28.727Z,100706.75
2023-05-18T09:37:38.189Z,100707.55
2023-05-18T09:39:47.739Z,100709.70
2023-05-18T09:42:00.607Z,100707.00
2023-05-18T09:44:10.509Z,100708.12
2023-05-18T09:46:21.155Z,100708.98
2023-05-18T09:48:31.283Z,100709.00
2023-05-18T09:50:40.431Z,100709.48
2023-05-18T09:52:50.605Z,100715.00
2023-05-18T09:55:04.925Z,100712.11
2023-05-18T09:57:14.480Z,100717.20
2023-05-18T09:59:24.848Z,100721.25
2023-05-18T10:05:05.809Z,100725.00
2023-05-18T10:07:28.394Z,100727.86
2023-05-18T10:09:48.460Z,100728.25
2023-05-18T10:12:04.210Z,100729.19
2023-05-18T10:14:36.990Z,100729.61
2023-05-18T10:16:51.667Z,100727.91
2023-05-18T10:19:25.209Z,100727.11
2023-05-18T10:21:46.475Z,100725.96
2023-05-18T10:24:09.168Z,100724.49
2023-05-18T10:26:24.848Z,100727.78
2023-05-18T10:28:47.678Z,100729.09
2023-05-18T10:31:01.594Z,100729.64
2023-05-18T10:33:29.566Z,100737.08
2023-05-18T10:36:00.533Z,100737.14
2023-05-18T10:38:24.535Z,100731.47
2023-05-18T10:40:56.536Z,100725.31
2023-05-18T10:43:28.286Z,100726.25
2023-05-18T10:45:54.323Z,100730.12
2023-05-18T10:48:15.522Z,100732.95
2023-05-18T10:50:29.857Z,100738.30
2023-05-18T10:53:01.072Z,100737.95
2023-05-18T10:55:31.874Z,100741.69
2023-05-18T10:57:53.394Z,100740.63
2023-05-18T11:00:09.660Z,100742.91
2023-05-18T11:02:40.562Z,100746.89
2023-05-18T11:04:58.026Z,100746.21
2023-05-18T11:07:31.010Z,100744.54
2023-05-18T11:10:02.785Z,100744.27
2023-05-18T11:12:35.436Z,100748.12
2023-05-18T11:15:05.738Z,100749.39
2023-05-18T11:17:27.488Z,100753.58
2023-05-18T11:19:38.451Z,100757.94
2023-05-18T11:21:56.637Z,100759.67
2023-05-18T11:24:26.823Z,100759.91
2023-05-18T11:26:57.253Z,100761.39
2023-05-18T11:29:32.085Z,100764.09
2023-05-18T11:32:02.554Z,100765.65
2023-05-18T11:34:45.518Z,100766.20
2023-05-18T11:37:19.011Z,100769.98
2023-05-18T11:40:11.632Z,100771.65
2023-05-18T11:42:41.838Z,100772.56
2023-05-18T11:45:10.439Z,100776.70
2023-05-18T11:47:42.017Z,100780.19
2023-05-18T11:50:14.426Z,100781.98
2023-05-18T11:52:53.905Z,100785.84
2023-05-18T11:55:07.858Z,100786.49
2023-05-18T11:57:28.665Z,100792.85
2023-05-18T12:00:01.576Z,100796.92
2023-05-18T12:02:33.215Z,100802.05
2023-05-18T12:05:03.772Z,100803.81
2023-05-18T12:07:13.938Z,100805.48
2023-05-18T12:09:45.996Z,100806.58
2023-05-18T12:12:14.501Z,100808.67
2023-05-18T12:14:45.516Z,100808.89
2023-05-18T12:17:15.207Z,100806.65
2023-05-18T12:19:49.930Z,100810.35
2023-05-18T12:22:12.683Z,100817.83
2023-05-18T12:24:32.676Z,100823.34
2023-05-18T12:27:07.334Z,100824.17
2023-05-18T12:29:39.672Z,100827.59
2023-05-18T12:31:59.485Z,100833.30
2023-05-18T12:34:32.325Z,100840.95
2023-05-18T12:36:53.710Z,100841.14
2023-05-18T12:39:23.486Z,100845.44
2023-05-18T12:41:52.815Z,100842.94
2023-05-18T12:44:22.884Z,100847.56
2023-05-18T12:46:54.224Z,100851.23
2023-05-18T12:49:07.489Z,100855.56
2023-05-18T12:51:31.255Z,100859.61
2023-05-18T12:53:52.434Z,100860.44
2023-05-18T12:56:21.578Z,100863.81
2023-05-18T12:59:04.862Z,100869.30
2023-05-18T13:01:18.425Z,100875.77
2023-05-18T13:03:27.878Z,100875.86
2023-05-18T13:05:37.373Z,100878.73
2023-05-18T13:07:57.756Z,100883.24
2023-05-18T13:10:21.003Z,100885.16
2023-05-18T13:12:52.761Z,100890.34
2023-05-18T13:15:20.336Z,100895.19
2023-05-18T13:18:03.363Z,100900.98
2023-05-18T13:20:37.952Z,100905.42
2023-05-18T13:23:01.132Z,100905.17
2023-05-18T13:25:30.980Z,100902.81
2023-05-18T13:27:56.351Z,100908.20
2023-05-18T13:30:06.077Z,100909.48
2023-05-18T13:32:35.531Z,100914.73
2023-05-18T13:34:48.520Z,100918.70
2023-05-18T13:37:09.431Z,100924.65
2023-05-18T13:39:39.668Z,100930.04
2023-05-18T13:42:10.567Z,100932.27
2023-05-18T13:44:39.874Z,100937.17
2023-05-18T13:47:00.850Z,100935.66
2023-05-18T13:49:20.429Z,100937.36
2023-05-18T13:51:40.469Z,100941.18
2023-05-18T13:54:10.421Z,100944.43
2023-05-18T13:56:39.751Z,100946.00
2023-05-18T13:59:09.161Z,100949.10
2023-05-18T14:01:33.281Z,100951.48
2023-05-18T14:03:45.872Z,100957.89
2023-05-18T14:06:15.462Z,100961.37
2023-05-18T14:08:44.881Z,100962.95
2023-05-18T14:11:07.314Z,100963.32
2023-05-18T14:13:26.721Z,100964.36
2023-05-18T14:15:47.386Z,100968.42
2023-05-18T14:18:07.026Z,100969.86
2023-05-18T14:20:38.207Z,100973.36
2023-05-18T14:23:00.700Z,100978.66
2023-05-18T14:25:30.628Z,100981.59
2023-05-18T14:28:00.195Z,100988.51
2023-05-18T14:30:20.433Z,100988.95
2023-05-18T14:32:33.142Z,100992.49
2023-05-18T14:35:02.823Z,100992.57
2023-05-18T14:37:15.362Z,100998.10
2023-05-18T14:39:45.337Z,100999.89
2023-05-18T14:41:54.956Z,100999.21
2023-05-18T14:44:24.514Z,101001.61
2023-05-18T14:46:54.242Z,101004.90
2023-05-18T14:49:23.748Z,101005.55
2023-05-18T14:51:45.015Z,101004.55
2023-05-18T14:54:04.687Z,101005.10
2023-05-18T14:56:34.270Z,101006.38
2023-05-18T14:59:04.066Z,101009.31
2023-05-18T15:01:24.419Z,101007.77
2023-05-18T15:03:53.819Z,101009.91
2023-05-18T15:06:16.399Z,101016.62
2023-05-18T15:08:36.042Z,101015.15
2023-05-18T15:11:05.378Z,101017.99
2023-05-18T15:13:34.740Z,101017.72
2023-05-18T15:16:04.195Z,101021.98
2023-05-18T15:18:17.019Z,101023.88
2023-05-18T15:20:47.177Z,101019.27
2023-05-18T15:23:06.182Z,101021.40
2023-05-18T15:25:25.524Z,101025.02
2023-05-18T15:27:45.510Z,101029.01
2023-05-18T15:30:16.154Z,101032.54
2023-05-18T15:32:45.660Z,101031.94
2023-05-18T15:35:16.783Z,101035.71
2023-05-18T15:37:37.998Z,101038.67
2023-05-18T15:40:08.629Z,101036.48
2023-05-18T15:42:38.171Z,101036.70
2023-05-18T15:45:08.475Z,101039.49
2023-05-18T15:47:31.512Z,101037.59
2023-05-18T15:49:44.415Z,101039.44
2023-05-18T15:51:53.855Z,101041.59
2023-05-18T15:54:13.215Z,101043.07
2023-05-18T15:56:26.147Z,101039.96
2023-05-18T15:58:39.182Z,101041.26
2023-05-18T16:00:48.777Z,101042.05
2023-05-18T16:02:58.467Z,101042.05
2023-05-18T16:05:19.256Z,101041.92
2023-05-18T16:07:31.438Z,101043.34
2023-05-18T16:09:43.947Z,101039.25
2023-05-18T16:11:54.121Z,101044.33
2023-05-18T16:14:13.833Z,101047.24
2023-05-18T16:16:33.134Z,101049.67
2023-05-18T16:19:03.392Z,101048.02
2023-05-18T16:21:15.277Z,101046.85
2023-05-18T16:23:27.792Z,101047.08
2023-05-18T16:25:47.135Z,101048.59
2023-05-18T16:28:16.569Z,101048.10
2023-05-18T16:30:26.483Z,101048.81
2023-05-18T16:32:39.194Z,101047.45
2023-05-18T16:34:48.849Z,101046.11
2023-05-18T16:37:01.410Z,101047.25
2023-05-18T16:39:30.925Z,101045.55
2023-05-18T16:41:49.689Z,101045.57
2023-05-18T16:44:09.677Z,101053.02
2023-05-18T16:46:22.169Z,101053.16
2023-05-18T16:48:31.818Z,101052.39
2023-05-18T16:51:01.236Z,101053.59
2023-05-18T16:53:23.766Z,101050.40
2023-05-18T16:55:45.210Z,101051.33
2023-05-18T16:57:57.816Z,101052.06
2023-05-18T17:00:27.496Z,101049.85
2023-05-18T17:02:40.784Z,101057.27
2023-05-18T17:05:11.668Z,101054.47
2023-05-18T17:07:23.361Z,101058.65
2023-05-18T17:09:43.112Z,101058.89
2023-05-18T17:11:52.782Z,101053.03
2023-05-18T17:14:05.460Z,101054.44
2023-05-18T17:16:20.409Z,101051.20
2023-05-18T17:18:50.115Z,101046.98
2023-05-18T17:21:03.253Z,101041.35
2023-05-18T17:23:17.741Z,101036.48
2023-05-18T17:25:27.448Z,101035.33
2023-05-18T17:27:36.804Z,101032.99
2023-05-18T17:29:46.204Z,101029.53
2023-05-18T17:31:58.223Z,101029.85
2023-05-18T17:34:11.769Z,101034.98
2023-05-18T17:36:42.818Z,101034.02
2023-05-18T17:38:52.926Z,101033.59
2023-05-18T17:41:11.825Z,101039.55
2023-05-18T17:43:32.527Z,101041.13
2023-05-18T17:45:52.087Z,101041.13
2023-05-18T17:48:01.521Z,101039.75
2023-05-18T17:50:13.942Z,101038.89
2023-05-18T17:52:43.302Z,101039.50
2023-05-18T17:54:58.262Z,101038.77
2023-05-18T17:57:13.507Z,101034.83
2023-05-18T17:59:26.418Z,101032.34
2023-05-18T18:01:46.041Z,101030.27
2023-05-18T18:04:05.639Z,101032.60
2023-05-18T18:06:36.146Z,101030.27
2023-05-18T18:09:06.280Z,101031.30
2023-05-18T18:11:19.055Z,101029.34
2023-05-18T18:13:48.894Z,101029.17
2023-05-18T18:15:58.409Z,101029.98
2023-05-18T18:18:08.304Z,101029.60
2023-05-18T18:20:27.528Z,101026.41
2023-05-18T18:22:47.891Z,101031.34
2023-05-18T18:25:00.067Z,101029.30
2023-05-18T18:27:19.832Z,101029.89
2023-05-18T18:29:49.744Z,101024.23
2023-05-18T18:32:10.317Z,101024.20
2023-05-18T18:34:30.860Z,101021.43
2023-05-18T18:36:51.143Z,101022.16
2023-05-18T18:39:04.430Z,101021.13
2023-05-18T18:41:18.031Z,101024.08
2023-05-18T18:43:28.024Z,101018.96
2023-05-18T18:45:58.274Z,101018.94
2023-05-18T18:48:11.217Z,101020.16
2023-05-18T18:50:34.690Z,101024.55
2023-05-18T18:52:55.376Z,101021.44
2023-05-18T18:55:25.470Z,101023.58
2023-05-18T18:57:38.333Z,101020.22
2023-05-18T19:00:11.410Z,101015.36
2023-05-18T19:02:21.566Z,101019.98
2023-05-18T19:04:49.766Z,101016.98
2023-05-18T19:07:09.695Z,101019.87
2023-05-18T19:09:19.258Z,101022.11
2023-05-18T19:11:28.675Z,101026.02
2023-05-18T19:13:55.129Z,101027.73
2023-05-18T19:16:24.676Z,101024.29
2023-05-18T19:18:47.445Z,101021.26
2023-05-18T19:21:07.197Z,101023.82
2023-05-18T19:23:36.970Z,101026.44
2023-05-18T19:25:49.577Z,101019.85
2023-05-18T19:28:19.059Z,101021.48
2023-05-18T19:30:39.633Z,101024.34
2023-05-18T19:33:08.979Z,101023.52
2023-05-18T19:35:38.491Z,101018.94
2023-05-18T19:38:07.982Z,101025.66
2023-05-18T19:40:29.322Z,101026.82
2023-05-18T19:42:49.818Z,101027.77
2023-05-18T19:45:09.726Z,101024.94
2023-05-18T19:47:27.944Z,101023.23
2023-05-18T19:49:48.885Z,101018.65
2023-05-18T19:52:11.479Z,101012.78
2023-05-18T19:54:30.846Z,101017.63
2023-05-18T19:56:43.371Z,101014.64
2023-05-18T19:58:58.270Z,101016.78
2023-05-18T20:01:27.548Z,101010.89
2023-05-18T20:03:59.598Z,101006.25
2023-05-18T20:06:12.695Z,101011.70
2023-05-18T20:08:22.754Z,101010.27
2023-05-18T20:10:54.259Z,101009.83
2023-05-18T20:13:14.382Z,101007.10
2023-05-18T20:15:37.404Z,101006.27
2023-05-18T20:17:50.118Z,101006.39
2023-05-18T20:20:02.354Z,101006.58
2023-05-18T20:22:22.534Z,101004.19
2023-05-18T20:24:36.826Z,101003.48
2023-05-18T20:27:06.655Z,101001.70
2023-05-18T20:29:26.741Z,101004.33
2023-05-18T20:31:39.626Z,101003.21
2023-05-18T20:33:49.285Z,101000.44
2023-05-18T20:36:19.557Z,100997.17
2023-05-18T20:38:49.888Z,100999.12
2023-05-18T20:41:00.041Z,101001.98
2023-05-18T20:43:18.269Z,100995.98
2023-05-18T20:45:49.566Z,100998.02
2023-05-18T20:48:02.420Z,100997.91
2023-05-18T20:50:23.398Z,100994.19
2023-05-18T20:52:54.036Z,100996.42
2023-05-18T20:55:24.239Z,100996.01
2023-05-18T20:57:54.032Z,100994.21
2023-05-18T21:00:23.955Z,100988.27
2023-05-18T21:02:34.136Z,100990.73
2023-05-18T21:04:53.523Z,100987.05
2023-05-18T21:07:12.876Z,100987.14
2023-05-18T21:09:42.892Z,100987.67
2023-05-18T21:12:12.789Z,100983.67
2023-05-18T21:14:43.554Z,100986.60
2023-05-18T21:16:53.093Z,100985.77
2023-05-18T21:19:10.082Z,100986.30
2023-05-18T21:21:19.771Z,100980.77
2023-05-18T21:23:29.215Z,100984.59
2023-05-18T21:25:38.720Z,100984.36
2023-05-18T21:27:57.988Z,100982.61
2023-05-18T21:30:08.385Z,100983.08
2023-05-18T21:32:37.923Z,100984.40
2023-05-18T21:34:47.767Z,100983.98
2023-05-18T21:36:57.833Z,100977.79
2023-05-18T21:39:10.037Z,100976.96
2023-05-18T21:41:40.749Z,100972.41
2023-05-18T21:43:50.174Z,100966.77
2023-05-18T21:46:19.855Z,100971.12
2023-05-18T21:48:32.545Z,100973.12
2023-05-18T21:50:52.740Z,100973.59
2023-05-18T21:53:15.138Z,100973.73
2023-05-18T21:55:44.664Z,100969.29
2023-05-18T21:58:03.305Z,100970.61
2023-05-18T22:00:17.061Z,100973.84
2023-05-18T22:02:26.228Z,100975.90
2023-05-18T22:04:45.603Z,100974.73
2023-05-18T22:07:15.062Z,100969.10
2023-05-18T22:09:44.640Z,100973.33
2023-05-18T22:11:55.095Z,100975.77
2023-05-18T22:14:18.207Z,100974.27
2023-05-18T22:16:47.799Z,100971.27
2023-05-18T22:19:17.732Z,100970.23
2023-05-18T22:21:47.077Z,100966.35
2023-05-18T22:24:16.810Z,100966.90
2023-05-18T22:26:29.501Z,100960.77
2023-05-18T22:28:58.960Z,100954.24
2023-05-18T22:31:18.486Z,100955.24
2023-05-18T22:33:28.155Z,100952.58
2023-05-18T22:35:57.946Z,100951.17
2023-05-18T22:38:18.258Z,100948.94
2023-05-18T22:40:37.988Z,100942.87
2023-05-18T22:42:47.591Z,100942.22
2023-05-18T22:44:57.318Z,100937.23
2023-05-18T22:47:07.007Z,100942.19
2023-05-18T22:49:16.329Z,100941.98
2023-05-18T22:51:36.702Z,100942.27
2023-05-18T22:54:05.984Z,100936.98
2023-05-18T22:56:35.307Z,100937.84
2023-05-18T22:58:44.671Z,100930.30
2023-05-18T23:00:54.252Z,100933.17
2023-05-18T23:03:03.734Z,100933.54
2023-05-18T23:05:13.648Z,100931.34
2023-05-18T23:07:36.572Z,100933.64
2023-05-18T23:10:06.681Z,100933.17
2023-05-18T23:12:30.701Z,100931.50
2023-05-18T23:15:02.876Z,100928.84
2023-05-18T23:17:31.316Z,100928.33
2023-05-18T23:19:51.024Z,100921.13
2023-05-18T23:22:20.493Z,100926.76
2023-05-18T23:24:29.933Z,100922.27
2023-05-18T23:26:49.518Z,100927.44
2023-05-18T23:28:59.034Z,100927.05
2023-05-18T23:31:17.937Z,100925.04
2023-05-18T23:33:39.742Z,100924.56
2023-05-18T23:35:51.483Z,100921.77
2023-05-18T23:38:22.443Z,100929.33
2023-05-18T23:40:43.133Z,100927.27
2023-05-18T23:43:13.566Z,100925.09
2023-05-18T23:45:44.436Z,100928.15
2023-05-18T23:48:15.676Z,100924.09
2023-05-18T23:50:33.946Z,100922.93
2023-05-18T23:52:47.934Z,100924.40
2023-05-18T23:55:17.738Z,100924.53
2023-05-18T23:57:48.220Z,100924.91
